Desmet, Idaho
Current Conditions -  °F | °C
As of 1:53 PM on Saturday 25 Oct 2014 (Local Time) from KPUW Reporting Station
Scattered Clouds Scattered Clouds  
Wind Chill: 63°   Ceiling: Unl
Heat Index: 63°   Visibility: 10mi
Dew Point: 46°   Wind: 12mph
Humidity: 54%   Direction: 100°E
Pressure: 29.62"   Gusts: NA
Location:  47.15°N, 116.92°W
Report Text: KPUW 252053Z AUTO 10010KT 10SM SCT120 17/08 A2962 RMK AO2 SLP026 T01720078 56017
Loading
Personal Weather Stations






























Interactive Weather Map
Tropical Storm Tracking
New forecast layout! Learn more

10-Day Weather Forecast

Advertisements
Track Severe Weather on mobile